createdAt,value
2023-05-14T00:01:20.304Z,17.15
2023-05-14T00:03:47.205Z,17.14
2023-05-14T00:06:15.506Z,17.11
2023-05-14T00:08:42.339Z,17.12
2023-05-14T00:11:09.338Z,17.12
2023-05-14T00:13:36.533Z,17.13
2023-05-14T00:16:03.684Z,17.13
2023-05-14T00:18:30.656Z,17.14
2023-05-14T00:20:57.570Z,17.15
2023-05-14T00:23:24.572Z,17.14
2023-05-14T00:25:51.387Z,17.14
2023-05-14T00:28:18.153Z,17.14
2023-05-14T00:30:45.224Z,17.14
2023-05-14T00:33:12.370Z,17.13
2023-05-14T00:35:39.263Z,17.12
2023-05-14T00:38:06.275Z,17.10
2023-05-14T00:40:33.974Z,17.08
2023-05-14T00:43:01.066Z,17.06
2023-05-14T00:45:28.256Z,17.02
2023-05-14T00:47:55.173Z,17.01
2023-05-14T00:50:22.978Z,16.96
2023-05-14T00:52:50.030Z,16.95
2023-05-14T00:55:17.213Z,16.91
2023-05-14T00:57:44.381Z,16.87
2023-05-14T01:00:11.773Z,16.83
2023-05-14T01:02:38.881Z,16.79
2023-05-14T01:05:06.832Z,16.74
2023-05-14T01:08:00.763Z,16.59
2023-05-14T01:10:45.584Z,16.54
2023-05-14T01:13:36.371Z,16.44
2023-05-14T01:16:05.061Z,16.44
2023-05-14T01:18:32.937Z,16.42
2023-05-14T01:20:59.751Z,16.39
2023-05-14T01:23:26.517Z,16.33
2023-05-14T01:25:53.319Z,16.28
2023-05-14T01:28:29.564Z,16.19
2023-05-14T01:31:08.452Z,16.12
2023-05-14T01:33:37.081Z,16.13
2023-05-14T01:36:04.886Z,16.10
2023-05-14T01:38:33.995Z,16.06
2023-05-14T01:41:01.470Z,16.03
2023-05-14T01:43:30.003Z,15.98
2023-05-14T01:45:56.879Z,15.96
2023-05-14T01:48:25.336Z,15.91
2023-05-14T01:50:52.638Z,15.88
2023-05-14T01:53:19.598Z,15.85
2023-05-14T01:55:46.500Z,15.84
2023-05-14T01:58:13.395Z,15.81
2023-05-14T02:00:40.193Z,15.79
2023-05-14T02:03:07.093Z,15.77
2023-05-14T02:05:34.255Z,15.77
2023-05-14T02:08:01.127Z,15.75
2023-05-14T02:10:28.054Z,15.75
2023-05-14T02:12:55.946Z,15.70
2023-05-14T02:15:22.897Z,15.68
2023-05-14T02:17:49.742Z,15.62
2023-05-14T02:20:16.699Z,15.56
2023-05-14T02:22:45.632Z,15.49
2023-05-14T02:25:12.752Z,15.41
2023-05-14T02:27:39.513Z,15.35
2023-05-14T02:30:07.100Z,15.28
2023-05-14T02:32:34.077Z,15.24
2023-05-14T02:35:01.080Z,15.20
2023-05-14T02:37:27.944Z,15.17
2023-05-14T02:39:54.789Z,15.14
2023-05-14T02:42:23.045Z,15.12
2023-05-14T02:44:50.192Z,15.11
2023-05-14T02:47:16.988Z,15.08
2023-05-14T02:49:43.785Z,15.07
2023-05-14T02:52:10.622Z,15.06
2023-05-14T02:54:37.627Z,15.04
2023-05-14T02:57:04.881Z,15.01
2023-05-14T02:59:31.924Z,14.99
2023-05-14T03:01:59.364Z,14.98
2023-05-14T03:04:26.718Z,14.97
2023-05-14T03:06:53.702Z,14.97
2023-05-14T03:09:20.597Z,14.98
2023-05-14T03:11:47.399Z,15.00
2023-05-14T03:14:14.328Z,15.01
2023-05-14T03:16:42.133Z,15.02
2023-05-14T03:19:09.791Z,15.05
2023-05-14T03:21:36.764Z,15.07
2023-05-14T03:24:03.650Z,15.09
2023-05-14T03:26:30.460Z,15.10
2023-05-14T03:28:57.328Z,15.13
2023-05-14T03:31:25.033Z,15.16
2023-05-14T03:33:52.093Z,15.17
2023-05-14T03:36:18.906Z,15.22
2023-05-14T03:38:47.928Z,15.24
2023-05-14T03:41:15.670Z,15.26
2023-05-14T03:43:42.780Z,15.30
2023-05-14T03:46:09.671Z,15.33
2023-05-14T03:48:36.660Z,15.35
2023-05-14T03:51:05.279Z,15.39
2023-05-14T03:53:32.061Z,15.41
2023-05-14T03:55:58.842Z,15.40
2023-05-14T03:58:26.203Z,15.39
2023-05-14T04:00:53.617Z,15.40
2023-05-14T04:03:20.594Z,15.40
2023-05-14T04:05:47.478Z,15.41
2023-05-14T04:08:14.288Z,15.42
2023-05-14T04:10:42.036Z,15.42
2023-05-14T04:13:08.898Z,15.42
2023-05-14T04:15:39.267Z,15.40
2023-05-14T04:18:06.189Z,15.40
2023-05-14T04:20:33.088Z,15.42
2023-05-14T04:22:59.886Z,15.44
2023-05-14T04:25:26.774Z,15.44
2023-05-14T04:27:53.670Z,15.45
2023-05-14T04:30:21.010Z,15.47
2023-05-14T04:32:48.006Z,15.49
2023-05-14T04:35:14.843Z,15.52
2023-05-14T04:37:41.774Z,15.54
2023-05-14T04:40:12.562Z,15.52
2023-05-14T04:42:39.402Z,15.53
2023-05-14T04:45:07.279Z,15.53
2023-05-14T04:47:34.346Z,15.55
2023-05-14T04:50:01.254Z,15.57
2023-05-14T04:52:28.093Z,15.60
2023-05-14T04:54:55.046Z,15.63
2023-05-14T04:57:22.046Z,15.68
2023-05-14T04:59:48.850Z,15.71
2023-05-14T05:02:15.700Z,15.75
2023-05-14T05:04:42.691Z,15.76
2023-05-14T05:07:09.499Z,15.79
2023-05-14T05:09:36.359Z,15.82
2023-05-14T05:12:03.195Z,15.83
2023-05-14T05:14:30.026Z,15.84
2023-05-14T05:16:56.824Z,15.84
2023-05-14T05:19:35.639Z,15.84
2023-05-14T05:22:07.005Z,15.85
2023-05-14T05:24:33.791Z,15.87
2023-05-14T05:27:00.660Z,15.89
2023-05-14T05:29:27.501Z,15.91
2023-05-14T05:31:54.411Z,15.92
2023-05-14T05:34:21.545Z,15.97
2023-05-14T05:36:48.411Z,15.98
2023-05-14T05:39:15.226Z,16.01
2023-05-14T05:41:43.461Z,16.04
2023-05-14T05:44:10.319Z,16.08
2023-05-14T05:46:37.462Z,16.11
2023-05-14T05:49:04.266Z,16.16
2023-05-14T05:51:31.428Z,16.22
2023-05-14T05:53:58.242Z,16.28
2023-05-14T05:56:25.108Z,16.32
2023-05-14T05:58:52.019Z,16.36
2023-05-14T06:01:18.848Z,16.41
2023-05-14T06:03:48.261Z,16.43
2023-05-14T06:06:15.588Z,16.44
2023-05-14T06:08:42.500Z,16.45
2023-05-14T06:11:10.343Z,16.46
2023-05-14T06:13:37.114Z,16.48
2023-05-14T06:16:04.055Z,16.52
2023-05-14T06:18:30.940Z,16.56
2023-05-14T06:20:59.952Z,16.58
2023-05-14T06:23:27.107Z,16.59
2023-05-14T06:25:54.202Z,16.57
2023-05-14T06:28:21.212Z,16.55
2023-05-14T06:30:50.583Z,16.54
2023-05-14T06:33:19.411Z,16.57
2023-05-14T06:35:47.322Z,16.52
2023-05-14T06:38:14.116Z,16.63
2023-05-14T06:40:40.866Z,16.66
2023-05-14T06:43:07.689Z,16.71
2023-05-14T06:45:34.566Z,16.77
2023-05-14T06:48:01.512Z,16.81
2023-05-14T06:50:28.476Z,16.87
2023-05-14T06:52:55.336Z,16.93
2023-05-14T06:55:22.257Z,16.99
2023-05-14T06:57:49.064Z,17.06
2023-05-14T07:00:16.895Z,17.12
2023-05-14T07:02:43.751Z,17.17
2023-05-14T07:05:11.171Z,17.22
2023-05-14T07:07:37.974Z,17.27
2023-05-14T07:10:05.828Z,17.30
2023-05-14T07:12:32.596Z,17.35
2023-05-14T07:14:59.401Z,17.39
2023-05-14T07:17:26.257Z,17.44
2023-05-14T07:19:55.427Z,17.51
2023-05-14T07:22:22.552Z,17.56
2023-05-14T07:24:50.301Z,17.61
2023-05-14T07:27:17.249Z,17.66
2023-05-14T07:29:44.349Z,17.72
2023-05-14T07:32:12.731Z,17.78
2023-05-14T07:34:40.832Z,17.82
2023-05-14T07:37:07.699Z,17.88
2023-05-14T07:39:34.544Z,17.95
2023-05-14T07:42:01.959Z,18.05
2023-05-14T07:44:28.800Z,18.14
2023-05-14T07:46:55.736Z,18.25
2023-05-14T07:49:22.563Z,18.34
2023-05-14T07:51:49.359Z,18.43
2023-05-14T07:54:16.759Z,18.49
2023-05-14T07:56:44.417Z,18.52
2023-05-14T07:59:11.202Z,18.61
2023-05-14T08:01:39.312Z,18.65
2023-05-14T08:04:06.639Z,18.69
2023-05-14T08:06:33.949Z,18.74
2023-05-14T08:09:00.943Z,18.79
2023-05-14T08:11:27.929Z,18.86
2023-05-14T08:13:54.786Z,18.93
2023-05-14T08:16:21.846Z,18.99
2023-05-14T08:18:48.926Z,19.06
2023-05-14T08:21:15.850Z,19.12
2023-05-14T08:23:42.790Z,19.18
2023-05-14T08:26:10.738Z,19.22
2023-05-14T08:28:37.574Z,19.30
2023-05-14T08:31:04.407Z,19.35
2023-05-14T08:33:31.314Z,19.42
2023-05-14T08:36:00.448Z,19.45
2023-05-14T08:38:27.307Z,19.47
2023-05-14T08:41:01.111Z,19.49
2023-05-14T08:43:45.243Z,19.53
2023-05-14T08:46:15.294Z,19.60
2023-05-14T08:48:43.690Z,19.66
2023-05-14T08:51:10.582Z,19.70
2023-05-14T08:53:38.410Z,19.73
2023-05-14T08:56:07.037Z,19.78
2023-05-14T08:58:33.980Z,19.91
2023-05-14T09:01:00.824Z,20.00
2023-05-14T09:03:28.634Z,20.11
2023-05-14T09:05:56.452Z,20.25
2023-05-14T09:08:24.292Z,20.41
2023-05-14T09:10:51.490Z,20.56
2023-05-14T09:13:18.528Z,20.71
2023-05-14T09:15:46.203Z,20.85
2023-05-14T09:18:13.121Z,21.00
2023-05-14T09:20:40.649Z,21.16
2023-05-14T09:23:07.497Z,21.31
2023-05-14T09:25:34.312Z,21.45
2023-05-14T09:28:07.645Z,21.57
2023-05-14T09:30:36.927Z,21.73
2023-05-14T09:33:04.266Z,21.84
2023-05-14T09:35:32.284Z,21.93
2023-05-14T09:37:59.190Z,22.02
2023-05-14T09:40:26.222Z,22.09
2023-05-14T09:42:53.330Z,22.18
2023-05-14T09:45:20.207Z,22.21
2023-05-14T09:47:47.258Z,22.27
2023-05-14T09:50:14.431Z,22.31
2023-05-14T09:52:41.285Z,22.36
2023-05-14T09:55:08.665Z,22.41
2023-05-14T09:57:35.754Z,22.45
2023-05-14T10:00:02.924Z,22.51
2023-05-14T10:02:37.740Z,22.56
2023-05-14T10:05:06.420Z,22.67
2023-05-14T10:07:44.645Z,22.72
2023-05-14T10:10:16.868Z,22.83
2023-05-14T10:12:57.480Z,22.93
2023-05-14T10:15:34.775Z,23.01
2023-05-14T10:18:12.362Z,23.10
2023-05-14T10:20:41.384Z,23.20
2023-05-14T10:23:08.249Z,23.26
2023-05-14T10:25:36.918Z,23.28
2023-05-14T10:28:05.931Z,23.29
2023-05-14T10:30:32.990Z,23.29
2023-05-14T10:33:18.340Z,23.25
2023-05-14T10:36:06.660Z,23.18
2023-05-14T10:38:36.082Z,23.20
2023-05-14T10:41:07.054Z,23.19
2023-05-14T10:43:39.161Z,23.18
2023-05-14T10:46:07.663Z,23.18
2023-05-14T10:48:36.889Z,23.14
2023-05-14T10:51:03.844Z,23.18
2023-05-14T10:53:48.930Z,23.24
2023-05-14T10:56:15.840Z,23.44
2023-05-14T10:58:44.729Z,23.50
2023-05-14T11:01:13.227Z,23.53
2023-05-14T11:03:42.298Z,23.59
2023-05-14T11:06:11.181Z,23.68
2023-05-14T11:08:39.226Z,23.79
2023-05-14T11:11:10.150Z,23.85
2023-05-14T11:13:37.547Z,23.93
2023-05-14T11:16:21.147Z,23.96
2023-05-14T11:19:02.110Z,23.94
2023-05-14T11:21:30.358Z,23.96
2023-05-14T11:23:57.762Z,23.88
2023-05-14T11:26:24.694Z,23.72
2023-05-14T11:28:51.991Z,23.59
2023-05-14T11:31:19.201Z,23.41
2023-05-14T11:33:46.449Z,23.25
2023-05-14T11:36:13.450Z,23.08
2023-05-14T11:38:51.259Z,22.87
2023-05-14T11:41:20.798Z,22.76
2023-05-14T11:43:48.189Z,22.63
2023-05-14T11:46:18.817Z,22.51
2023-05-14T11:48:46.021Z,22.46
2023-05-14T11:51:13.040Z,22.42
2023-05-14T11:53:39.926Z,22.43
2023-05-14T11:56:09.031Z,22.45
2023-05-14T11:58:36.716Z,22.32
2023-05-14T12:01:03.592Z,22.44
2023-05-14T12:03:31.012Z,22.46
2023-05-14T12:05:59.655Z,22.46
2023-05-14T12:08:28.100Z,22.45
2023-05-14T12:10:55.369Z,22.52
2023-05-14T12:13:26.358Z,22.62
2023-05-14T12:15:59.275Z,22.77
2023-05-14T12:18:31.567Z,23.04
2023-05-14T12:21:08.232Z,23.33
2023-05-14T12:23:35.443Z,23.72
2023-05-14T12:26:07.006Z,23.98
2023-05-14T12:28:38.411Z,24.20
2023-05-14T12:31:05.627Z,24.39
2023-05-14T12:33:32.559Z,24.49
2023-05-14T12:36:17.482Z,24.52
2023-05-14T12:38:48.352Z,24.46
2023-05-14T12:41:15.171Z,24.31
2023-05-14T12:43:47.904Z,24.08
2023-05-14T12:46:15.015Z,23.86
2023-05-14T12:48:41.807Z,23.56
2023-05-14T12:51:08.688Z,23.30
2023-05-14T12:53:35.708Z,23.04
2023-05-14T12:58:29.352Z,22.63
2023-05-14T13:00:56.416Z,22.43
2023-05-14T13:03:23.533Z,22.29
2023-05-14T13:05:52.263Z,22.19
2023-05-14T13:08:21.448Z,22.17
2023-05-14T13:10:48.508Z,22.18
2023-05-14T13:13:15.827Z,22.23
2023-05-14T13:15:42.663Z,22.29
2023-05-14T13:18:09.572Z,22.32
2023-05-14T13:20:36.761Z,22.38
2023-05-14T13:23:03.609Z,22.43
2023-05-14T13:25:30.514Z,22.52
2023-05-14T13:27:57.445Z,22.59
2023-05-14T13:30:24.359Z,22.67
2023-05-14T13:32:51.397Z,22.72
2023-05-14T13:35:18.645Z,22.77
2023-05-14T13:40:12.823Z,22.84
2023-05-14T13:45:07.915Z,22.75
2023-05-14T13:47:34.824Z,22.68
2023-05-14T13:50:01.660Z,22.57
2023-05-14T13:52:28.487Z,22.45
2023-05-14T13:54:58.017Z,22.34
2023-05-14T13:57:24.949Z,22.22
2023-05-14T13:59:51.756Z,22.11
2023-05-14T14:02:18.595Z,22.00
2023-05-14T14:04:45.476Z,21.90
2023-05-14T14:07:12.315Z,21.83
2023-05-14T14:09:39.165Z,21.75
2023-05-14T14:12:06.601Z,21.70
2023-05-14T14:14:33.553Z,21.67
2023-05-14T14:17:00.665Z,21.63
2023-05-14T14:19:27.506Z,21.62
2023-05-14T14:21:54.545Z,21.68
2023-05-14T14:24:21.361Z,21.77
2023-05-14T14:26:48.151Z,21.88
2023-05-14T14:29:14.935Z,22.00
2023-05-14T14:31:41.803Z,22.15
2023-05-14T14:34:08.773Z,22.32
2023-05-14T14:36:35.730Z,22.45
2023-05-14T14:39:02.513Z,22.58
2023-05-14T14:41:29.754Z,22.68
2023-05-14T14:43:56.719Z,22.73
2023-05-14T14:46:23.601Z,22.75
2023-05-14T14:48:50.441Z,22.75
2023-05-14T14:51:17.287Z,22.77
2023-05-14T14:53:44.178Z,22.76
2023-05-14T14:56:11.121Z,22.73
2023-05-14T14:58:38.251Z,22.71
2023-05-14T15:01:05.270Z,22.71
2023-05-14T15:03:32.371Z,22.78
2023-05-14T15:05:59.422Z,22.90
2023-05-14T15:08:28.009Z,23.07
2023-05-14T15:10:59.271Z,23.28
2023-05-14T15:13:26.860Z,23.51
2023-05-14T15:15:53.715Z,23.71
2023-05-14T15:18:20.784Z,23.90
2023-05-14T15:20:47.803Z,24.05
2023-05-14T15:23:14.619Z,24.20
2023-05-14T15:25:41.426Z,24.38
2023-05-14T15:28:08.417Z,24.58
2023-05-14T15:30:35.315Z,24.76
2023-05-14T15:33:02.287Z,24.97
2023-05-14T15:35:29.256Z,25.17
2023-05-14T15:37:57.325Z,25.34
2023-05-14T15:40:24.489Z,25.47
2023-05-14T15:42:51.499Z,25.59
2023-05-14T15:45:18.555Z,25.72
2023-05-14T15:47:45.501Z,25.85
2023-05-14T15:50:12.668Z,25.98
2023-05-14T15:52:39.952Z,26.12
2023-05-14T15:55:07.674Z,26.27
2023-05-14T15:57:34.663Z,26.44
2023-05-14T16:00:01.807Z,26.58
2023-05-14T16:02:33.148Z,26.49
2023-05-14T16:05:00.223Z,26.58
2023-05-14T16:07:27.112Z,26.52
2023-05-14T16:09:54.046Z,26.41
2023-05-14T16:12:20.864Z,26.24
2023-05-14T16:14:47.744Z,26.04
2023-05-14T16:17:14.649Z,25.83
2023-05-14T16:19:41.634Z,25.61
2023-05-14T16:22:08.506Z,25.39
2023-05-14T16:24:36.065Z,25.18
2023-05-14T16:27:04.783Z,24.95
2023-05-14T16:29:32.621Z,24.72
2023-05-14T16:31:59.936Z,24.53
2023-05-14T16:34:26.720Z,24.35
2023-05-14T16:36:53.538Z,24.29
2023-05-14T16:39:20.504Z,24.38
2023-05-14T16:41:47.351Z,24.39
2023-05-14T16:44:14.204Z,24.30
2023-05-14T16:46:41.010Z,24.31
2023-05-14T16:49:07.856Z,24.52
2023-05-14T16:51:34.807Z,24.67
2023-05-14T16:54:01.738Z,24.69
2023-05-14T16:56:29.260Z,24.78
2023-05-14T16:58:56.088Z,25.05
2023-05-14T17:01:22.956Z,25.46
2023-05-14T17:03:49.758Z,25.93
2023-05-14T17:06:16.611Z,26.39
2023-05-14T17:08:43.458Z,26.80
2023-05-14T17:11:10.419Z,27.14
2023-05-14T17:13:37.267Z,27.42
2023-05-14T17:16:04.370Z,27.64
2023-05-14T17:18:32.561Z,27.76
2023-05-14T17:20:59.483Z,27.62
2023-05-14T17:23:26.349Z,27.43
2023-05-14T17:25:53.166Z,27.31
2023-05-14T17:28:19.985Z,27.22
2023-05-14T17:30:46.749Z,27.17
2023-05-14T17:33:13.592Z,27.17
2023-05-14T17:35:40.467Z,27.18
2023-05-14T17:38:07.327Z,27.21
2023-05-14T17:40:34.697Z,27.10
2023-05-14T17:43:01.795Z,26.91
2023-05-14T17:45:34.141Z,26.67
2023-05-14T17:48:06.630Z,26.41
2023-05-14T17:50:33.502Z,26.14
2023-05-14T17:53:00.364Z,25.89
2023-05-14T17:55:27.209Z,25.65
2023-05-14T17:57:54.033Z,25.41
2023-05-14T18:00:20.932Z,25.18
2023-05-14T18:02:47.861Z,24.95
2023-05-14T18:05:14.796Z,24.72
2023-05-14T18:07:41.707Z,24.52
2023-05-14T18:10:08.853Z,24.31
2023-05-14T18:12:35.811Z,24.10
2023-05-14T18:15:02.584Z,23.94
2023-05-14T18:17:29.597Z,23.75
2023-05-14T18:19:56.395Z,23.58
2023-05-14T18:22:23.197Z,23.43
2023-05-14T18:24:49.988Z,23.28
2023-05-14T18:27:16.808Z,23.13
2023-05-14T18:29:43.690Z,22.97
2023-05-14T18:32:10.499Z,22.83
2023-05-14T18:34:37.333Z,22.70
2023-05-14T18:37:04.226Z,22.59
2023-05-14T18:39:31.158Z,22.44
2023-05-14T18:41:58.007Z,22.29
2023-05-14T18:44:24.850Z,22.14
2023-05-14T18:46:52.271Z,21.99
2023-05-14T18:49:19.106Z,21.85
2023-05-14T18:51:45.971Z,21.71
2023-05-14T18:54:12.792Z,21.59
2023-05-14T18:56:45.377Z,21.47
2023-05-14T18:59:13.651Z,21.33
2023-05-14T19:01:40.536Z,21.18
2023-05-14T19:04:08.068Z,21.03
2023-05-14T19:06:36.035Z,20.93
2023-05-14T19:09:02.858Z,20.83
2023-05-14T19:11:30.878Z,20.75
2023-05-14T19:13:57.883Z,20.68
2023-05-14T19:16:24.853Z,20.61
2023-05-14T19:18:51.828Z,20.54
2023-05-14T19:21:18.724Z,20.49
2023-05-14T19:23:45.645Z,20.41
2023-05-14T19:26:12.476Z,20.36
2023-05-14T19:28:39.315Z,20.28
2023-05-14T19:31:06.293Z,20.23
2023-05-14T19:33:33.220Z,20.15
2023-05-14T19:36:00.031Z,20.09
2023-05-14T19:38:27.171Z,20.01
2023-05-14T19:40:56.799Z,19.94
2023-05-14T19:43:27.864Z,19.83
2023-05-14T19:45:54.731Z,19.77
2023-05-14T19:48:21.557Z,19.69
2023-05-14T19:50:48.436Z,19.60
2023-05-14T19:53:15.413Z,19.51
2023-05-14T19:55:42.226Z,19.42
2023-05-14T19:58:11.961Z,19.31
2023-05-14T20:00:39.044Z,19.19
2023-05-14T20:03:07.347Z,19.07
2023-05-14T20:05:34.308Z,18.95
2023-05-14T20:08:01.156Z,18.82
2023-05-14T20:10:28.351Z,18.72
2023-05-14T20:12:55.358Z,18.61
2023-05-14T20:15:23.587Z,18.53
2023-05-14T20:17:50.472Z,18.46
2023-05-14T20:20:17.361Z,18.38
2023-05-14T20:22:44.960Z,18.29
2023-05-14T20:25:12.237Z,18.20
2023-05-14T20:27:39.105Z,18.08
2023-05-14T20:30:06.955Z,17.99
2023-05-14T20:32:34.170Z,17.89
2023-05-14T20:35:01.991Z,17.82
2023-05-14T20:37:30.468Z,17.73
2023-05-14T20:39:57.400Z,17.63
2023-05-14T20:42:25.453Z,17.51
2023-05-14T20:44:53.470Z,17.40
2023-05-14T20:47:24.064Z,17.29
2023-05-14T20:49:51.189Z,17.18
2023-05-14T20:52:18.750Z,17.08
2023-05-14T20:54:45.856Z,17.02
2023-05-14T20:57:17.921Z,16.94
2023-05-14T20:59:45.984Z,16.85
2023-05-14T21:02:12.978Z,16.80
2023-05-14T21:04:40.024Z,16.72
2023-05-14T21:07:07.202Z,16.63
2023-05-14T21:09:34.079Z,16.55
2023-05-14T21:12:00.947Z,16.48
2023-05-14T21:14:27.758Z,16.43
2023-05-14T21:16:54.542Z,16.38
2023-05-14T21:19:23.248Z,16.34
2023-05-14T21:21:50.314Z,16.31
2023-05-14T21:24:17.072Z,16.26
2023-05-14T21:26:43.875Z,16.23
2023-05-14T21:29:11.263Z,16.22
2023-05-14T21:31:38.129Z,16.21
2023-05-14T21:34:04.987Z,16.21
2023-05-14T21:36:31.917Z,16.22
2023-05-14T21:38:58.746Z,16.24
2023-05-14T21:41:25.597Z,16.25
2023-05-14T21:43:52.477Z,16.26
2023-05-14T21:46:19.380Z,16.28
2023-05-14T21:48:46.259Z,16.25
2023-05-14T21:51:13.202Z,16.21
2023-05-14T21:53:40.042Z,16.15
2023-05-14T21:56:07.997Z,16.10
2023-05-14T21:58:35.486Z,16.05
2023-05-14T22:01:02.386Z,16.01
2023-05-14T22:03:29.276Z,15.96
2023-05-14T22:05:56.150Z,15.89
2023-05-14T22:08:23.677Z,15.87
2023-05-14T22:10:50.630Z,15.85
2023-05-14T22:13:17.422Z,15.83
2023-05-14T22:15:44.551Z,15.80
2023-05-14T22:18:12.692Z,15.78
2023-05-14T22:20:40.030Z,15.74
2023-05-14T22:23:07.098Z,15.72
2023-05-14T22:25:34.120Z,15.71
2023-05-14T22:28:00.964Z,15.73
2023-05-14T22:30:27.809Z,15.71
2023-05-14T22:32:54.618Z,15.72
2023-05-14T22:35:21.575Z,15.72
2023-05-14T22:37:48.404Z,15.74
2023-05-14T22:40:15.257Z,15.75
2023-05-14T22:42:42.066Z,15.75
2023-05-14T22:45:09.537Z,15.77
2023-05-14T22:47:37.573Z,15.78
2023-05-14T22:50:11.014Z,15.80
2023-05-14T22:52:41.483Z,15.79
2023-05-14T22:55:08.818Z,15.81
2023-05-14T22:57:35.669Z,15.83
2023-05-14T23:00:04.421Z,15.84
2023-05-14T23:02:31.294Z,15.86
2023-05-14T23:04:58.128Z,15.86
2023-05-14T23:07:25.169Z,15.88
2023-05-14T23:09:52.042Z,15.87
2023-05-14T23:12:18.944Z,15.86
2023-05-14T23:14:45.968Z,15.87
2023-05-14T23:17:14.513Z,15.87
2023-05-14T23:19:41.513Z,15.86
2023-05-14T23:22:08.455Z,15.84
2023-05-14T23:24:35.332Z,15.82
2023-05-14T23:27:02.352Z,15.81
2023-05-14T23:29:29.195Z,15.81
2023-05-14T23:31:56.053Z,15.80
2023-05-14T23:34:22.934Z,15.78
2023-05-14T23:36:50.233Z,15.75
2023-05-14T23:39:17.411Z,15.72
2023-05-14T23:41:44.217Z,15.68
2023-05-14T23:44:11.062Z,15.64
2023-05-14T23:46:37.872Z,15.63
2023-05-14T23:49:05.162Z,15.61
2023-05-14T23:51:32.015Z,15.60
2023-05-14T23:53:58.913Z,15.57
2023-05-14T23:56:30.016Z,15.56
2023-05-14T23:58:56.955Z,15.53
